createdAt,value
2022-08-05T00:00:22.949Z,1015.38
2022-08-05T00:01:28.005Z,1015.12
2022-08-05T00:02:22.972Z,1014.72
2022-08-05T00:03:22.861Z,1014.50
2022-08-05T00:04:22.832Z,1014.34
2022-08-05T00:06:03.227Z,1014.32
2022-08-05T00:06:30.706Z,1014.22
2022-08-05T00:07:58.873Z,1014.06
2022-08-05T00:08:34.920Z,1013.97
2022-08-05T00:09:22.795Z,1014.00
2022-08-05T00:10:22.747Z,1014.14
2022-08-05T00:11:30.651Z,1014.00
2022-08-05T00:12:22.788Z,1013.94
2022-08-05T00:13:38.421Z,1013.83
2022-08-05T00:14:22.714Z,1013.82
2022-08-05T00:15:55.519Z,1013.76
2022-08-05T00:16:36.417Z,1013.75
2022-08-05T00:17:22.692Z,1013.70
2022-08-05T00:18:22.909Z,1013.79
2022-08-05T00:19:24.692Z,1013.76
2022-08-05T00:20:22.627Z,1013.78
2022-08-05T00:21:22.692Z,1013.81
2022-08-05T00:22:22.594Z,1013.74
2022-08-05T00:23:44.456Z,1013.70
2022-08-05T00:24:24.686Z,1013.76
2022-08-05T00:25:22.585Z,1013.66
2022-08-05T00:26:22.628Z,1013.72
2022-08-05T00:27:22.677Z,1013.67
2022-08-05T00:28:29.686Z,1013.66
2022-08-05T00:29:25.787Z,1013.58
2022-08-05T00:30:29.248Z,1013.60
2022-08-05T00:31:53.635Z,1013.60
2022-08-05T00:32:22.479Z,1013.66
2022-08-05T00:34:56.128Z,1013.68
2022-08-05T00:35:11.074Z,1013.71
2022-08-05T00:35:22.457Z,1013.81
2022-08-05T00:37:10.804Z,1013.87
2022-08-05T00:37:22.447Z,1013.90
2022-08-05T00:38:28.910Z,1013.86
2022-08-05T00:39:22.483Z,1013.88
2022-08-05T00:40:27.852Z,1013.89
2022-08-05T00:41:22.383Z,1014.02
2022-08-05T00:42:31.595Z,1014.06
2022-08-05T00:43:22.344Z,1014.16
2022-08-05T00:44:23.385Z,1014.42
2022-08-05T00:45:25.008Z,1014.55
2022-08-05T00:46:42.686Z,1014.62
2022-08-05T00:47:22.427Z,1014.68
2022-08-05T00:48:31.319Z,1014.84
2022-08-05T00:49:22.271Z,1014.86
2022-08-05T00:50:22.269Z,1014.92
2022-08-05T00:51:51.539Z,1014.93
2022-08-05T00:52:28.445Z,1015.01
2022-08-05T00:54:00.971Z,1015.09
2022-08-05T00:54:22.218Z,1015.12
2022-08-05T00:55:22.191Z,1015.07
2022-08-05T00:56:22.984Z,1015.08
2022-08-05T00:57:22.400Z,1015.08
2022-08-05T00:58:22.123Z,1015.07
2022-08-05T00:59:22.145Z,1015.08
2022-08-05T01:00:22.137Z,1015.09
2022-08-05T01:01:24.712Z,1015.12
2022-08-05T01:02:22.092Z,1015.13
2022-08-05T01:03:23.023Z,1015.13
2022-08-05T01:04:26.743Z,1015.17
2022-08-05T01:05:22.067Z,1015.16
2022-08-05T01:06:22.053Z,1015.13
2022-08-05T01:07:22.032Z,1015.23
2022-08-05T01:08:30.768Z,1015.33
2022-08-05T01:09:22.002Z,1015.57
2022-08-05T01:10:21.974Z,1015.70
2022-08-05T01:11:24.187Z,1015.81
2022-08-05T01:12:21.990Z,1015.77
2022-08-05T01:13:22.434Z,1015.66
2022-08-05T01:14:27.826Z,1015.66
2022-08-05T01:15:36.292Z,1015.70
2022-08-05T01:16:26.502Z,1015.69
2022-08-05T01:17:22.073Z,1015.66
2022-08-05T01:18:21.915Z,1015.65
2022-08-05T01:19:30.219Z,1015.70
2022-08-05T01:20:28.347Z,1015.75
2022-08-05T01:21:23.092Z,1015.67
2022-08-05T01:22:24.474Z,1015.67
2022-08-05T01:23:23.306Z,1015.60
2022-08-05T01:24:22.081Z,1015.50
2022-08-05T01:25:21.877Z,1015.48
2022-08-05T01:26:21.773Z,1015.51
2022-08-05T01:27:22.165Z,1015.43
2022-08-05T01:28:21.767Z,1015.36
2022-08-05T01:29:22.938Z,1015.25
2022-08-05T01:30:34.099Z,1015.13
2022-08-05T01:31:21.733Z,1015.00
2022-08-05T01:32:21.684Z,1014.84
2022-08-05T01:33:21.705Z,1014.66
2022-08-05T01:34:21.659Z,1014.54
2022-08-05T01:35:51.153Z,1014.46
2022-08-05T01:36:21.723Z,1014.46
2022-08-05T01:37:24.621Z,1014.52
2022-08-05T01:38:26.797Z,1014.56
2022-08-05T01:39:45.884Z,1014.59
2022-08-05T01:40:21.600Z,1014.60
2022-08-05T01:41:21.860Z,1014.67
2022-08-05T01:42:21.619Z,1014.70
2022-08-05T01:43:21.926Z,1014.57
2022-08-05T01:44:21.545Z,1014.41
2022-08-05T01:45:21.521Z,1014.25
2022-08-05T01:46:41.406Z,1014.13
2022-08-05T01:47:21.827Z,1014.08
2022-08-05T01:48:21.533Z,1013.98
2022-08-05T01:49:23.011Z,1013.93
2022-08-05T01:50:28.841Z,1013.88
2022-08-05T01:51:21.449Z,1013.82
2022-08-05T01:52:21.442Z,1013.77
2022-08-05T01:53:54.557Z,1013.75
2022-08-05T01:54:25.566Z,1013.73
2022-08-05T01:55:21.394Z,1013.72
2022-08-05T01:58:29.946Z,1013.76
2022-08-05T01:58:45.785Z,1013.79
2022-08-05T01:58:51.270Z,1013.86
2022-08-05T01:59:50.843Z,1013.83
2022-08-05T02:00:50.808Z,1013.88
2022-08-05T02:01:50.809Z,1013.89
2022-08-05T02:02:54.540Z,1013.94
2022-08-05T02:03:50.739Z,1013.98
2022-08-05T02:04:50.748Z,1014.08
2022-08-05T02:05:50.751Z,1014.17
2022-08-05T02:06:50.732Z,1014.20
2022-08-05T02:08:00.270Z,1014.27
2022-08-05T02:08:58.408Z,1014.36
2022-08-05T02:09:50.953Z,1014.43
2022-08-05T02:10:50.667Z,1014.55
2022-08-05T02:11:52.540Z,1014.71
2022-08-05T02:12:51.018Z,1014.75
2022-08-05T02:13:53.600Z,1015.15
2022-08-05T02:14:50.627Z,1015.37
2022-08-05T02:15:50.600Z,1015.40
2022-08-05T02:16:52.948Z,1015.69
2022-08-05T02:18:32.276Z,1015.80
2022-08-05T02:18:50.575Z,1016.05
2022-08-05T02:19:50.544Z,1016.65
2022-08-05T02:20:50.543Z,1016.66
2022-08-05T02:21:50.533Z,1016.50
2022-08-05T02:22:50.523Z,1016.64
2022-08-05T02:23:50.529Z,1016.46
2022-08-05T02:24:51.292Z,1016.48
2022-08-05T02:25:50.682Z,1016.39
2022-08-05T02:26:53.853Z,1016.44
2022-08-05T02:27:58.099Z,1016.46
2022-08-05T02:28:50.440Z,1016.58
2022-08-05T02:29:59.174Z,1016.55
2022-08-05T02:30:54.580Z,1016.43
2022-08-05T02:31:50.400Z,1016.42
2022-08-05T02:32:50.379Z,1016.35
2022-08-05T02:33:57.156Z,1016.27
2022-08-05T02:34:54.661Z,1016.15
2022-08-05T02:35:56.343Z,1016.08
2022-08-05T02:36:50.344Z,1015.90
2022-08-05T02:37:54.090Z,1015.77
2022-08-05T02:38:52.979Z,1015.76
2022-08-05T02:39:51.762Z,1015.74
2022-08-05T02:40:50.281Z,1015.70
2022-08-05T02:41:58.015Z,1015.64
2022-08-05T02:42:52.958Z,1015.63
2022-08-05T02:44:02.459Z,1015.73
2022-08-05T02:44:50.268Z,1015.77
2022-08-05T02:45:52.688Z,1015.78
2022-08-05T02:46:58.892Z,1015.78
2022-08-05T02:48:06.687Z,1015.86
2022-08-05T02:48:50.189Z,1015.84
2022-08-05T02:49:50.198Z,1015.91
2022-08-05T02:50:50.144Z,1015.86
2022-08-05T02:52:03.782Z,1015.83
2022-08-05T02:52:50.130Z,1015.81
2022-08-05T02:53:50.113Z,1015.85
2022-08-05T02:54:50.917Z,1015.96
2022-08-05T02:55:54.856Z,1015.98
2022-08-05T02:56:50.102Z,1015.89
2022-08-05T02:58:20.176Z,1015.89
2022-08-05T02:58:51.183Z,1015.93
2022-08-05T02:59:51.900Z,1015.90
2022-08-05T03:00:50.057Z,1015.95
2022-08-05T03:01:50.101Z,1015.97
2022-08-05T03:02:49.989Z,1016.00
2022-08-05T03:04:02.895Z,1016.00
2022-08-05T03:04:53.328Z,1015.96
2022-08-05T03:06:56.814Z,1015.98
2022-08-05T03:07:03.675Z,1015.98
2022-08-05T03:08:00.869Z,1015.99
2022-08-05T03:08:52.197Z,1016.05
2022-08-05T03:09:51.885Z,1016.06
2022-08-05T03:11:50.058Z,1016.18
2022-08-05T03:12:00.448Z,1016.23
2022-08-05T03:12:51.948Z,1016.25
2022-08-05T03:13:51.781Z,1016.36
2022-08-05T03:14:49.867Z,1016.41
2022-08-05T03:15:49.807Z,1016.37
2022-08-05T03:16:49.839Z,1016.45
2022-08-05T03:17:49.809Z,1016.41
2022-08-05T03:18:49.781Z,1016.39
2022-08-05T03:19:49.835Z,1016.40
2022-08-05T03:20:49.755Z,1016.42
2022-08-05T03:21:50.075Z,1016.43
2022-08-05T03:22:50.017Z,1016.39
2022-08-05T03:23:49.706Z,1016.38
2022-08-05T03:24:51.092Z,1016.48
2022-08-05T03:26:03.650Z,1016.59
2022-08-05T03:26:49.709Z,1016.58
2022-08-05T03:27:59.676Z,1016.58
2022-08-05T03:28:49.664Z,1016.49
2022-08-05T03:30:07.661Z,1016.44
2022-08-05T03:30:49.636Z,1016.36
2022-08-05T03:31:57.376Z,1016.40
2022-08-05T03:32:49.643Z,1016.44
2022-08-05T03:33:53.012Z,1016.46
2022-08-05T03:34:51.337Z,1016.45
2022-08-05T03:35:49.878Z,1016.48
2022-08-05T03:36:49.499Z,1016.48
2022-08-05T03:37:49.466Z,1016.47
2022-08-05T03:38:53.364Z,1016.51
2022-08-05T03:40:01.172Z,1016.60
2022-08-05T03:40:49.486Z,1016.53
2022-08-05T03:41:49.417Z,1016.64
2022-08-05T03:42:52.253Z,1016.67
2022-08-05T03:44:09.534Z,1016.62
2022-08-05T03:44:49.390Z,1016.57
2022-08-05T03:45:57.695Z,1016.66
2022-08-05T03:46:49.363Z,1016.72
2022-08-05T03:47:49.434Z,1016.73
2022-08-05T03:48:49.343Z,1016.76
2022-08-05T03:49:51.870Z,1016.73
2022-08-05T03:50:49.309Z,1016.77
2022-08-05T03:52:36.958Z,1016.86
2022-08-05T03:56:05.472Z,1016.89
2022-08-05T03:56:27.795Z,1016.86
2022-08-05T03:56:37.758Z,1016.83
2022-08-05T03:57:34.963Z,1016.90
2022-08-05T03:58:29.119Z,1016.90
2022-08-05T03:59:29.193Z,1016.84
2022-08-05T04:00:26.814Z,1016.80
2022-08-05T04:01:26.767Z,1016.75
2022-08-05T04:02:37.484Z,1016.61
2022-08-05T04:03:28.890Z,1016.57
2022-08-05T04:04:26.712Z,1016.62
2022-08-05T04:05:27.958Z,1016.59
2022-08-05T04:06:26.721Z,1016.65
2022-08-05T04:07:26.744Z,1016.72
2022-08-05T04:08:35.173Z,1016.72
2022-08-05T04:09:26.828Z,1016.65
2022-08-05T04:10:27.786Z,1016.69
2022-08-05T04:11:47.675Z,1016.63
2022-08-05T04:12:26.616Z,1016.61
2022-08-05T04:13:27.850Z,1016.68
2022-08-05T04:14:29.864Z,1016.76
2022-08-05T04:15:26.550Z,1016.77
2022-08-05T04:16:32.667Z,1016.87
2022-08-05T04:17:26.612Z,1016.97
2022-08-05T04:18:26.535Z,1017.06
2022-08-05T04:19:26.500Z,1017.01
2022-08-05T04:20:26.520Z,1017.06
2022-08-05T04:22:09.812Z,1017.18
2022-08-05T04:22:26.636Z,1017.26
2022-08-05T04:23:58.345Z,1017.25
2022-08-05T04:24:27.610Z,1017.21
2022-08-05T04:25:57.805Z,1017.25
2022-08-05T04:26:26.428Z,1017.10
2022-08-05T04:27:41.814Z,1017.06
2022-08-05T04:28:31.034Z,1017.04
2022-08-05T04:29:27.105Z,1017.09
2022-08-05T04:30:26.590Z,1017.12
2022-08-05T04:31:27.583Z,1017.11
2022-08-05T04:32:33.299Z,1017.17
2022-08-05T04:33:36.387Z,1017.17
2022-08-05T04:34:32.625Z,1017.19
2022-08-05T04:35:26.313Z,1017.17
2022-08-05T04:36:45.986Z,1017.20
2022-08-05T04:38:02.880Z,1017.09
2022-08-05T04:38:39.735Z,1017.06
2022-08-05T04:39:27.626Z,1017.14
2022-08-05T04:40:26.253Z,1017.09
2022-08-05T04:41:36.887Z,1017.13
2022-08-05T04:42:26.223Z,1017.04
2022-08-05T04:43:26.259Z,1016.97
2022-08-05T04:44:29.911Z,1016.97
2022-08-05T04:45:48.365Z,1016.94
2022-08-05T04:46:27.866Z,1016.92
2022-08-05T04:47:26.484Z,1016.97
2022-08-05T04:48:27.706Z,1017.07
2022-08-05T04:49:38.767Z,1017.13
2022-08-05T04:50:34.315Z,1017.01
2022-08-05T04:51:26.095Z,1016.73
2022-08-05T04:52:27.716Z,1016.64
2022-08-05T04:53:26.087Z,1016.65
2022-08-05T04:54:26.070Z,1016.68
2022-08-05T04:56:15.418Z,1016.59
2022-08-05T04:56:40.034Z,1016.53
2022-08-05T04:57:28.526Z,1016.64
2022-08-05T04:58:26.003Z,1016.60
2022-08-05T04:59:38.845Z,1016.49
2022-08-05T05:00:26.034Z,1016.48
2022-08-05T05:02:06.372Z,1016.46
2022-08-05T05:02:41.457Z,1016.52
2022-08-05T05:03:25.963Z,1016.52
2022-08-05T05:04:25.956Z,1016.50
2022-08-05T05:05:28.823Z,1016.49
2022-08-05T05:06:39.617Z,1016.54
2022-08-05T05:07:29.357Z,1016.58
2022-08-05T05:08:30.127Z,1016.57
2022-08-05T05:09:25.860Z,1016.62
2022-08-05T05:10:25.868Z,1016.64
2022-08-05T05:11:41.474Z,1016.58
2022-08-05T05:12:27.527Z,1016.60
2022-08-05T05:13:25.844Z,1016.59
2022-08-05T05:14:27.786Z,1016.43
2022-08-05T05:15:57.471Z,1016.31
2022-08-05T05:16:30.404Z,1016.16
2022-08-05T05:17:56.671Z,1016.16
2022-08-05T05:18:31.394Z,1016.22
2022-08-05T05:19:27.252Z,1016.18
2022-08-05T05:20:28.355Z,1016.14
2022-08-05T05:21:27.218Z,1016.10
2022-08-05T05:22:26.352Z,1016.11
2022-08-05T05:23:25.756Z,1016.11
2022-08-05T05:24:35.811Z,1016.05
2022-08-05T05:25:40.305Z,1016.11
2022-08-05T05:26:28.677Z,1016.07
2022-08-05T05:27:41.478Z,1016.08
2022-08-05T05:28:25.662Z,1016.05
2022-08-05T05:30:03.496Z,1016.01
2022-08-05T05:30:29.533Z,1016.08
2022-08-05T05:31:25.569Z,1016.10
2022-08-05T05:32:24.607Z,1016.10
2022-08-05T05:33:25.555Z,1016.15
2022-08-05T05:34:26.918Z,1016.17
2022-08-05T05:35:25.554Z,1016.14
2022-08-05T05:36:25.537Z,1016.16
2022-08-05T05:37:37.286Z,1016.22
2022-08-05T05:38:27.458Z,1016.25
2022-08-05T05:39:25.587Z,1016.25
2022-08-05T05:40:26.133Z,1016.28
2022-08-05T05:41:25.483Z,1016.38
2022-08-05T05:42:25.438Z,1016.47
2022-08-05T05:43:54.546Z,1016.47
2022-08-05T05:44:37.537Z,1016.45
2022-08-05T05:45:25.424Z,1016.45
2022-08-05T05:46:25.382Z,1016.46
2022-08-05T05:47:30.180Z,1016.49
2022-08-05T05:48:27.526Z,1016.48
2022-08-05T05:49:25.327Z,1016.46
2022-08-05T05:50:25.863Z,1016.43
2022-08-05T05:51:25.700Z,1016.38
2022-08-05T05:52:28.402Z,1016.40
2022-08-05T05:53:25.293Z,1016.42
2022-08-05T05:54:49.796Z,1016.50
2022-08-05T05:55:25.310Z,1016.56
2022-08-05T05:56:26.190Z,1016.65
2022-08-05T05:57:25.340Z,1016.72
2022-08-05T05:58:31.792Z,1016.73
2022-08-05T05:59:25.219Z,1016.75
2022-08-05T06:00:27.593Z,1016.74
2022-08-05T06:01:25.226Z,1016.75
2022-08-05T06:02:36.834Z,1016.75
2022-08-05T06:03:39.803Z,1016.79
2022-08-05T06:04:25.282Z,1016.71
2022-08-05T06:05:25.199Z,1016.63
2022-08-05T06:06:25.126Z,1016.85
2022-08-05T06:07:25.238Z,1016.94
2022-08-05T06:08:31.515Z,1016.89
2022-08-05T06:10:00.124Z,1016.86
2022-08-05T06:10:25.058Z,1016.96
2022-08-05T06:11:25.083Z,1017.02
2022-08-05T06:12:27.147Z,1016.96
2022-08-05T06:13:25.023Z,1016.99
2022-08-05T06:14:25.000Z,1016.92
2022-08-05T06:15:24.994Z,1016.88
2022-08-05T06:16:37.334Z,1016.79
2022-08-05T06:17:31.130Z,1016.73
2022-08-05T06:18:31.306Z,1016.82
2022-08-05T06:19:26.292Z,1016.88
2022-08-05T06:20:24.955Z,1016.96
2022-08-05T06:21:24.949Z,1017.01
2022-08-05T06:22:24.933Z,1017.01
2022-08-05T06:23:24.923Z,1016.95
2022-08-05T06:24:27.223Z,1016.91
2022-08-05T06:26:12.661Z,1016.85
2022-08-05T06:26:25.722Z,1016.86
2022-08-05T06:28:12.353Z,1016.89
2022-08-05T06:28:28.456Z,1017.06
2022-08-05T06:29:46.890Z,1017.13
2022-08-05T06:30:25.224Z,1017.17
2022-08-05T06:31:30.448Z,1017.19
2022-08-05T06:32:28.815Z,1017.24
2022-08-05T06:33:33.442Z,1017.27
2022-08-05T06:34:24.747Z,1017.34
2022-08-05T06:36:07.914Z,1017.34
2022-08-05T06:36:25.940Z,1017.38
2022-08-05T06:37:57.951Z,1017.38
2022-08-05T06:38:35.927Z,1017.43
2022-08-05T06:39:26.947Z,1017.53
2022-08-05T06:40:27.839Z,1017.51
2022-08-05T06:41:24.687Z,1017.55
2022-08-05T06:42:25.342Z,1017.53
2022-08-05T06:43:51.570Z,1017.57
2022-08-05T06:44:24.640Z,1017.61
2022-08-05T06:46:03.444Z,1017.62
2022-08-05T06:46:30.096Z,1017.64
2022-08-05T06:48:11.971Z,1017.52
2022-08-05T06:48:58.834Z,1017.48
2022-08-05T06:50:00.539Z,1017.41
2022-08-05T06:50:24.538Z,1017.38
2022-08-05T06:51:29.999Z,1017.46
2022-08-05T06:52:37.153Z,1017.46
2022-08-05T06:53:28.540Z,1017.47
2022-08-05T06:54:25.919Z,1017.49
2022-08-05T06:55:24.486Z,1017.40
2022-08-05T06:56:26.321Z,1017.44
2022-08-05T06:58:02.824Z,1017.42
2022-08-05T06:58:35.288Z,1017.35
2022-08-05T06:59:24.437Z,1017.24
2022-08-05T07:00:24.924Z,1017.22
2022-08-05T07:01:32.095Z,1017.11
2022-08-05T07:02:24.390Z,1017.13
2022-08-05T07:03:27.971Z,1017.10
2022-08-05T07:04:24.354Z,1017.09
2022-08-05T07:05:37.000Z,1017.02
2022-08-05T07:06:24.346Z,1017.03
2022-08-05T07:07:35.596Z,1017.04
2022-08-05T07:08:25.188Z,1017.11
2022-08-05T07:09:24.944Z,1017.15
2022-08-05T07:10:30.450Z,1017.14
2022-08-05T07:11:25.428Z,1017.14
2022-08-05T07:12:24.248Z,1017.09
2022-08-05T07:13:55.061Z,1017.06
2022-08-05T07:14:29.661Z,1017.05
2022-08-05T07:15:34.511Z,1017.04
2022-08-05T07:17:57.195Z,1017.03
2022-08-05T07:18:08.880Z,1017.04
2022-08-05T07:18:27.420Z,1016.98
2022-08-05T07:20:10.529Z,1016.95
2022-08-05T07:20:37.087Z,1016.87
2022-08-05T07:21:25.655Z,1016.88
2022-08-05T07:22:29.078Z,1016.86
2022-08-05T07:23:26.141Z,1016.88
2022-08-05T07:24:24.098Z,1017.00
2022-08-05T07:25:55.205Z,1017.08
2022-08-05T07:26:25.669Z,1017.15
2022-08-05T07:27:27.723Z,1017.24
2022-08-05T07:28:24.068Z,1017.14
2022-08-05T07:30:21.864Z,1017.09
2022-08-05T07:30:34.027Z,1017.03
2022-08-05T07:31:41.056Z,1016.95
2022-08-05T07:32:26.123Z,1017.08
2022-08-05T07:33:36.904Z,1017.20
2022-08-05T07:34:28.420Z,1017.21
2022-08-05T07:36:03.567Z,1017.28
2022-08-05T07:36:23.937Z,1017.34
2022-08-05T07:37:24.195Z,1017.35
2022-08-05T07:38:32.174Z,1017.46
2022-08-05T07:40:03.691Z,1017.51
2022-08-05T07:40:31.710Z,1017.53
2022-08-05T07:42:14.194Z,1017.45
2022-08-05T07:42:34.074Z,1017.52
2022-08-05T07:43:24.004Z,1017.51
2022-08-05T07:44:23.901Z,1017.43
2022-08-05T07:45:56.803Z,1017.45
2022-08-05T07:46:25.508Z,1017.43
2022-08-05T07:47:25.854Z,1017.36
2022-08-05T07:49:00.576Z,1017.27
2022-08-05T07:49:23.785Z,1017.24
2022-08-05T07:50:29.021Z,1017.24
2022-08-05T07:51:37.159Z,1017.23
2022-08-05T07:52:23.915Z,1017.21
2022-08-05T07:53:23.735Z,1017.18
2022-08-05T07:54:26.364Z,1017.18
2022-08-05T07:56:05.159Z,1017.09
2022-08-05T07:57:00.379Z,1016.94
2022-08-05T07:57:55.165Z,1016.84
2022-08-05T07:58:54.841Z,1016.68
2022-08-05T07:59:38.360Z,1016.52
2022-08-05T08:00:23.637Z,1016.54
2022-08-05T08:01:23.683Z,1016.69
2022-08-05T08:02:26.332Z,1016.74
2022-08-05T08:03:23.596Z,1016.86
2022-08-05T08:04:37.349Z,1016.99
2022-08-05T08:05:23.580Z,1017.07
2022-08-05T08:06:23.558Z,1017.04
2022-08-05T08:07:23.575Z,1017.10
2022-08-05T08:08:23.527Z,1017.10
2022-08-05T08:09:23.542Z,1017.14
2022-08-05T08:10:23.595Z,1017.13
2022-08-05T08:11:27.563Z,1017.10
2022-08-05T08:12:33.540Z,1017.11
2022-08-05T08:13:28.971Z,1017.09
2022-08-05T08:14:23.441Z,1017.02
2022-08-05T08:15:37.238Z,1017.11
2022-08-05T08:16:50.914Z,1017.13
2022-08-05T08:17:23.697Z,1017.14
2022-08-05T08:18:23.387Z,1017.11
2022-08-05T08:20:43.507Z,1017.17
2022-08-05T08:21:09.448Z,1017.17
2022-08-05T08:21:23.382Z,1017.16
2022-08-05T08:22:23.336Z,1017.16
2022-08-05T08:24:02.054Z,1017.13
2022-08-05T08:24:23.316Z,1017.12
2022-08-05T08:25:26.990Z,1017.15
2022-08-05T08:26:27.007Z,1017.09
2022-08-05T08:27:23.551Z,1017.10
2022-08-05T08:28:37.016Z,1017.07
2022-08-05T08:30:03.779Z,1017.17
2022-08-05T08:30:32.616Z,1017.35
2022-08-05T08:31:23.239Z,1017.50
2022-08-05T08:32:28.192Z,1017.51
2022-08-05T08:33:23.213Z,1017.50
2022-08-05T08:34:30.808Z,1017.52
2022-08-05T08:35:23.185Z,1017.49
2022-08-05T08:36:38.197Z,1017.57
2022-08-05T08:37:28.006Z,1017.61
2022-08-05T08:38:35.175Z,1017.73
2022-08-05T08:39:23.179Z,1017.74
2022-08-05T08:40:23.107Z,1017.72
2022-08-05T08:41:26.308Z,1017.66
2022-08-05T08:42:34.052Z,1017.67
2022-08-05T08:45:23.884Z,1017.66
2022-08-05T08:45:31.162Z,1017.70
2022-08-05T08:45:36.303Z,1017.68
2022-08-05T08:46:36.259Z,1017.65
2022-08-05T08:48:06.434Z,1017.62
2022-08-05T08:49:02.903Z,1017.62
2022-08-05T08:50:14.161Z,1017.63
2022-08-05T08:51:22.176Z,1017.59
2022-08-05T08:52:13.661Z,1017.64
2022-08-05T08:52:36.200Z,1017.57
2022-08-05T08:53:36.225Z,1017.61
2022-08-05T08:54:36.468Z,1017.57
2022-08-05T08:56:04.047Z,1017.57
2022-08-05T08:56:36.178Z,1017.60
2022-08-05T08:57:41.981Z,1017.59
2022-08-05T08:58:43.949Z,1017.58
2022-08-05T08:59:36.124Z,1017.61
2022-08-05T09:00:36.137Z,1017.54
2022-08-05T09:01:36.124Z,1017.56
2022-08-05T09:02:36.066Z,1017.57
2022-08-05T09:03:45.077Z,1017.58
2022-08-05T09:04:36.095Z,1017.61
2022-08-05T09:05:38.209Z,1017.66
2022-08-05T09:06:36.194Z,1017.68
2022-08-05T09:07:40.102Z,1017.74
2022-08-05T09:08:35.986Z,1017.76
2022-08-05T09:09:36.011Z,1017.75
2022-08-05T09:10:35.958Z,1017.77
2022-08-05T09:11:52.456Z,1017.87
2022-08-05T09:12:35.960Z,1017.95
2022-08-05T09:14:01.028Z,1018.00
2022-08-05T09:14:56.476Z,1018.12
2022-08-05T09:15:36.780Z,1018.14
2022-08-05T09:16:35.895Z,1018.21
2022-08-05T09:17:40.924Z,1018.23
2022-08-05T09:18:38.971Z,1018.25
2022-08-05T09:19:36.293Z,1018.14
2022-08-05T09:20:37.477Z,1018.18
2022-08-05T09:22:23.393Z,1018.13
2022-08-05T09:22:36.266Z,1018.13
2022-08-05T09:23:37.272Z,1018.12
2022-08-05T09:24:35.838Z,1018.19
2022-08-05T09:26:01.914Z,1018.18
2022-08-05T09:26:35.749Z,1018.24
2022-08-05T09:28:04.669Z,1018.10
2022-08-05T09:28:35.730Z,1018.05
2022-08-05T09:29:35.725Z,1017.98
2022-08-05T09:30:35.754Z,1018.00
2022-08-05T09:32:40.057Z,1017.94
2022-08-05T09:32:47.490Z,1017.91
2022-08-05T09:33:35.692Z,1017.96
2022-08-05T09:34:35.650Z,1017.94
2022-08-05T09:35:35.666Z,1017.96
2022-08-05T09:36:35.692Z,1018.02
2022-08-05T09:38:16.854Z,1017.93
2022-08-05T09:38:35.599Z,1017.95
2022-08-05T09:39:45.026Z,1017.94
2022-08-05T09:40:35.577Z,1017.89
2022-08-05T09:41:38.280Z,1017.86
2022-08-05T09:42:35.566Z,1017.90
2022-08-05T09:43:40.804Z,1017.85
2022-08-05T09:44:35.538Z,1017.85
2022-08-05T09:46:07.639Z,1017.78
2022-08-05T09:46:35.498Z,1017.80
2022-08-05T09:47:55.661Z,1017.77
2022-08-05T09:48:35.473Z,1017.74
2022-08-05T09:49:54.762Z,1017.71
2022-08-05T09:50:38.711Z,1017.67
2022-08-05T09:51:36.591Z,1017.64
2022-08-05T09:52:35.489Z,1017.69
2022-08-05T09:53:53.885Z,1017.72
2022-08-05T09:54:35.404Z,1017.63
2022-08-05T09:55:56.368Z,1017.64
2022-08-05T09:56:35.377Z,1017.64
2022-08-05T09:57:39.474Z,1017.66
2022-08-05T09:58:35.355Z,1017.76
2022-08-05T09:59:37.142Z,1017.84
2022-08-05T10:00:35.321Z,1017.88
2022-08-05T10:01:35.396Z,1017.92
2022-08-05T10:02:35.310Z,1017.89
2022-08-05T10:03:56.589Z,1017.95
2022-08-05T10:04:35.270Z,1017.94
2022-08-05T10:05:35.277Z,1018.02
2022-08-05T10:06:35.248Z,1017.94
2022-08-05T10:08:10.680Z,1017.98
2022-08-05T10:08:42.527Z,1017.99
2022-08-05T10:09:45.156Z,1018.02
2022-08-05T10:10:35.204Z,1018.02
2022-08-05T10:11:35.431Z,1018.01
2022-08-05T10:12:35.576Z,1018.04
2022-08-05T10:13:45.593Z,1018.03
2022-08-05T10:14:35.195Z,1018.04
2022-08-05T10:15:35.116Z,1018.04
2022-08-05T10:16:37.852Z,1018.08
2022-08-05T10:17:37.892Z,1018.02
2022-08-05T10:18:35.116Z,1017.94
2022-08-05T10:20:04.549Z,1017.89
2022-08-05T10:20:35.069Z,1017.87
2022-08-05T10:21:35.182Z,1017.87
2022-08-05T10:22:37.672Z,1017.99
2022-08-05T10:23:35.021Z,1017.87
2022-08-05T10:24:35.072Z,1017.87
2022-08-05T10:25:34.978Z,1017.93
2022-08-05T10:26:34.981Z,1017.89
2022-08-05T10:28:09.743Z,1017.94
2022-08-05T10:28:36.587Z,1017.97
2022-08-05T10:31:21.102Z,1017.96
2022-08-05T10:33:01.735Z,1017.99
2022-08-05T10:33:09.249Z,1018.08
2022-08-05T10:34:07.032Z,1018.00
2022-08-05T10:35:06.009Z,1018.15
2022-08-05T10:36:05.949Z,1018.15
2022-08-05T10:37:05.933Z,1018.16
2022-08-05T10:38:05.939Z,1018.18
2022-08-05T10:39:11.903Z,1018.16
2022-08-05T10:40:17.473Z,1018.19
2022-08-05T10:41:05.973Z,1018.23
2022-08-05T10:42:05.953Z,1018.27
2022-08-05T10:43:05.835Z,1018.37
2022-08-05T10:44:05.847Z,1018.36
2022-08-05T10:45:20.903Z,1018.36
2022-08-05T10:46:06.443Z,1018.28
2022-08-05T10:47:05.781Z,1018.32
2022-08-05T10:48:30.295Z,1018.32
2022-08-05T10:49:09.985Z,1018.31
2022-08-05T10:50:20.820Z,1018.37
2022-08-05T10:51:05.740Z,1018.30
2022-08-05T10:52:10.608Z,1018.30
2022-08-05T10:53:05.727Z,1018.31
2022-08-05T10:54:28.300Z,1018.32
2022-08-05T10:55:05.812Z,1018.29
2022-08-05T10:56:21.546Z,1018.29
2022-08-05T10:57:05.696Z,1018.27
2022-08-05T10:58:05.672Z,1018.37
2022-08-05T10:59:12.788Z,1018.29
2022-08-05T11:00:09.876Z,1018.33
2022-08-05T11:01:05.619Z,1018.39
2022-08-05T11:02:05.778Z,1018.36
2022-08-05T11:03:25.002Z,1018.41
2022-08-05T11:04:05.593Z,1018.36
2022-08-05T11:05:05.567Z,1018.39
2022-08-05T11:06:05.560Z,1018.34
2022-08-05T11:07:05.549Z,1018.37
2022-08-05T11:08:27.492Z,1018.39
2022-08-05T11:09:05.502Z,1018.31
2022-08-05T11:10:09.908Z,1018.31
2022-08-05T11:11:14.570Z,1018.34
2022-08-05T11:12:05.486Z,1018.40
2022-08-05T11:13:05.478Z,1018.32
2022-08-05T11:14:05.463Z,1018.46
2022-08-05T11:15:19.338Z,1018.45
2022-08-05T11:16:05.470Z,1018.46
2022-08-05T11:17:57.696Z,1018.49
2022-08-05T11:18:05.872Z,1018.47
2022-08-05T11:20:09.986Z,1018.49
2022-08-05T11:20:22.256Z,1018.49
2022-08-05T11:21:06.494Z,1018.50
2022-08-05T11:22:05.358Z,1018.45
2022-08-05T11:23:06.003Z,1018.55
2022-08-05T11:24:29.995Z,1018.64
2022-08-05T11:26:02.959Z,1018.54
2022-08-05T11:26:10.962Z,1018.56
2022-08-05T11:27:05.274Z,1018.56
2022-08-05T11:28:05.286Z,1018.52
2022-08-05T11:29:13.877Z,1018.59
2022-08-05T11:30:05.278Z,1018.52
2022-08-05T11:31:06.608Z,1018.56
2022-08-05T11:32:05.229Z,1018.55
2022-08-05T11:33:05.216Z,1018.57
2022-08-05T11:34:05.234Z,1018.59
2022-08-05T11:35:05.205Z,1018.57
2022-08-05T11:36:08.690Z,1018.64
2022-08-05T11:37:06.316Z,1018.70
2022-08-05T11:38:37.332Z,1018.76
2022-08-05T11:39:05.188Z,1018.78
2022-08-05T11:40:05.331Z,1018.79
2022-08-05T11:41:35.426Z,1018.85
2022-08-05T11:42:05.726Z,1018.85
2022-08-05T11:43:05.070Z,1018.84
2022-08-05T11:44:08.109Z,1018.86
2022-08-05T11:45:05.564Z,1018.97
2022-08-05T11:46:16.164Z,1018.97
2022-08-05T11:47:14.257Z,1019.03
2022-08-05T11:48:05.031Z,1019.06
2022-08-05T11:49:04.997Z,1019.11
2022-08-05T11:50:04.995Z,1019.17
2022-08-05T11:51:05.015Z,1019.10
2022-08-05T11:52:08.664Z,1019.13
2022-08-05T11:53:04.951Z,1019.12
2022-08-05T11:54:05.052Z,1019.15
2022-08-05T11:55:07.730Z,1019.32
2022-08-05T11:56:04.938Z,1019.14
2022-08-05T11:57:08.520Z,1019.17
2022-08-05T11:58:09.810Z,1019.14
2022-08-05T11:59:04.868Z,1019.18
2022-08-05T12:00:04.866Z,1019.17
2022-08-05T12:01:04.842Z,1019.17
2022-08-05T12:02:04.873Z,1019.07
2022-08-05T12:03:04.894Z,1019.15
2022-08-05T12:04:04.835Z,1019.15
2022-08-05T12:05:07.236Z,1019.19
2022-08-05T12:06:06.560Z,1019.23
2022-08-05T12:07:04.766Z,1019.24
2022-08-05T12:08:09.629Z,1019.29
2022-08-05T12:09:04.757Z,1019.28